createdAt,value
2017-08-23T00:01:42.901Z,18.10
2017-08-23T00:04:16.458Z,18.20
2017-08-23T00:06:49.965Z,18.20
2017-08-23T00:09:23.601Z,18.20
2017-08-23T00:11:57.202Z,18.10
2017-08-23T00:14:30.639Z,18.20
2017-08-23T00:17:05.020Z,18.20
2017-08-23T00:19:38.983Z,18.20
2017-08-23T00:22:12.686Z,18.20
2017-08-23T00:24:47.149Z,18.10
2017-08-23T00:27:20.750Z,18.10
2017-08-23T00:29:54.354Z,18.10
2017-08-23T00:32:27.917Z,18.20
2017-08-23T00:35:01.654Z,18.10
2017-08-23T00:37:35.257Z,18.10
2017-08-23T00:40:08.857Z,18.10
2017-08-23T00:42:42.455Z,18.00
2017-08-23T00:45:16.657Z,18.10
2017-08-23T00:47:50.485Z,18.00
2017-08-23T00:50:24.182Z,18.00
2017-08-23T00:52:58.511Z,18.00
2017-08-23T00:55:32.173Z,18.00
2017-08-23T00:58:05.798Z,18.00
2017-08-23T01:00:39.465Z,18.00
2017-08-23T01:03:13.208Z,18.00
2017-08-23T01:05:46.762Z,18.00
2017-08-23T01:08:21.130Z,18.00
2017-08-23T01:10:54.601Z,18.00
2017-08-23T01:13:28.389Z,18.00
2017-08-23T01:16:02.034Z,17.90
2017-08-23T01:18:35.733Z,18.00
2017-08-23T01:21:09.334Z,17.90
2017-08-23T01:23:42.933Z,17.90
2017-08-23T01:26:16.494Z,17.90
2017-08-23T01:28:50.342Z,17.90
2017-08-23T01:31:24.457Z,17.80
2017-08-23T01:33:58.194Z,17.70
2017-08-23T01:36:32.035Z,17.80
2017-08-23T01:39:05.657Z,17.80
2017-08-23T01:41:39.118Z,17.80
2017-08-23T01:44:12.762Z,17.90
2017-08-23T01:46:46.569Z,17.80
2017-08-23T01:49:20.069Z,17.70
2017-08-23T01:51:53.665Z,17.70
2017-08-23T01:54:27.375Z,17.70
2017-08-23T01:57:00.931Z,17.80
2017-08-23T01:59:34.575Z,17.70
2017-08-23T02:02:08.273Z,17.70
2017-08-23T02:04:41.838Z,17.70
2017-08-23T02:07:15.676Z,17.80
2017-08-23T02:09:49.388Z,17.80
2017-08-23T02:12:22.900Z,17.70
2017-08-23T02:14:56.582Z,17.60
2017-08-23T02:17:30.305Z,17.60
2017-08-23T02:20:03.994Z,17.70
2017-08-23T02:22:37.670Z,17.70
2017-08-23T02:25:11.398Z,17.60
2017-08-23T02:27:45.105Z,17.70
2017-08-23T02:30:18.707Z,17.70
2017-08-23T02:32:53.036Z,17.60
2017-08-23T02:35:27.314Z,17.60
2017-08-23T02:38:00.894Z,17.70
2017-08-23T02:40:40.741Z,17.70
2017-08-23T02:43:14.385Z,17.60
2017-08-23T02:45:47.978Z,17.50
2017-08-23T02:48:21.806Z,17.40
2017-08-23T02:50:55.502Z,17.40
2017-08-23T02:53:29.198Z,17.40
2017-08-23T02:56:02.802Z,17.50
2017-08-23T02:58:36.337Z,17.50
2017-08-23T03:01:09.910Z,17.40
2017-08-23T03:03:43.574Z,17.40
2017-08-23T03:06:17.938Z,17.50
2017-08-23T03:08:52.209Z,17.50
2017-08-23T03:11:26.245Z,17.50
2017-08-23T03:13:59.950Z,17.40
2017-08-23T03:16:34.007Z,17.30
2017-08-23T03:19:07.442Z,17.30
2017-08-23T03:21:41.078Z,17.30
2017-08-23T03:24:14.658Z,17.30
2017-08-23T03:26:48.170Z,17.40
2017-08-23T03:29:21.709Z,17.20
2017-08-23T03:31:55.458Z,17.20
2017-08-23T03:34:29.088Z,17.20
2017-08-23T03:37:02.765Z,17.30
2017-08-23T03:39:36.293Z,17.30
2017-08-23T03:42:09.846Z,17.20
2017-08-23T03:44:43.672Z,17.20
2017-08-23T03:47:17.286Z,17.20
2017-08-23T03:49:50.973Z,17.20
2017-08-23T03:52:24.684Z,17.20
2017-08-23T03:54:58.277Z,17.20
2017-08-23T03:57:31.913Z,17.20
2017-08-23T04:00:05.480Z,17.20
2017-08-23T04:02:39.077Z,17.20
2017-08-23T04:05:12.576Z,17.20
2017-08-23T04:07:46.205Z,17.10
2017-08-23T04:10:19.786Z,17.10
2017-08-23T04:12:53.592Z,17.20
2017-08-23T04:15:27.181Z,17.20
2017-08-23T04:18:00.785Z,17.20
2017-08-23T04:20:34.290Z,17.20
2017-08-23T04:23:07.890Z,17.20
2017-08-23T04:25:41.334Z,17.20
2017-08-23T04:28:14.977Z,17.20
2017-08-23T04:30:48.788Z,17.20
2017-08-23T04:33:22.386Z,17.10
2017-08-23T04:35:55.989Z,17.10
2017-08-23T04:38:29.699Z,17.10
2017-08-23T04:41:03.313Z,17.20
2017-08-23T04:43:36.885Z,17.10
2017-08-23T04:46:10.495Z,17.00
2017-08-23T04:48:44.138Z,17.10
2017-08-23T04:51:17.902Z,17.20
2017-08-23T04:53:51.601Z,17.30
2017-08-23T04:56:25.126Z,17.30
2017-08-23T04:58:59.009Z,17.20
2017-08-23T05:01:32.550Z,17.10
2017-08-23T05:04:06.322Z,17.10
2017-08-23T05:06:40.013Z,17.20
2017-08-23T05:09:13.639Z,17.10
2017-08-23T05:11:47.338Z,17.10
2017-08-23T05:14:21.025Z,17.20
2017-08-23T05:16:54.521Z,17.10
2017-08-23T05:19:28.077Z,17.20
2017-08-23T05:22:02.593Z,17.30
2017-08-23T05:24:36.246Z,17.20
2017-08-23T05:27:09.796Z,17.20
2017-08-23T05:29:43.446Z,17.20
2017-08-23T05:32:17.012Z,17.20
2017-08-23T05:34:50.797Z,17.30
2017-08-23T05:37:24.305Z,17.30
2017-08-23T05:39:58.061Z,17.40
2017-08-23T05:42:31.654Z,17.50
2017-08-23T05:45:05.254Z,17.40
2017-08-23T05:47:39.162Z,17.40
2017-08-23T05:50:13.585Z,17.50
2017-08-23T05:52:47.389Z,17.50
2017-08-23T05:55:21.090Z,17.50
2017-08-23T05:57:54.785Z,17.50
2017-08-23T06:00:28.397Z,17.50
2017-08-23T06:03:02.098Z,17.60
2017-08-23T06:05:35.670Z,17.60
2017-08-23T06:08:09.990Z,17.70
2017-08-23T06:10:43.574Z,17.70
2017-08-23T06:13:17.730Z,17.70
2017-08-23T06:15:51.529Z,17.70
2017-08-23T06:18:24.962Z,17.80
2017-08-23T06:20:58.677Z,17.80
2017-08-23T06:23:33.013Z,17.80
2017-08-23T06:26:07.373Z,17.80
2017-08-23T06:28:41.510Z,17.80
2017-08-23T06:31:15.193Z,17.80
2017-08-23T06:33:49.698Z,17.90
2017-08-23T06:36:23.282Z,17.90
2017-08-23T06:38:57.114Z,17.90
2017-08-23T06:41:30.747Z,18.00
2017-08-23T06:44:04.523Z,18.00
2017-08-23T06:46:38.127Z,18.00
2017-08-23T06:49:11.722Z,18.10
2017-08-23T06:51:45.325Z,18.10
2017-08-23T06:54:18.839Z,18.10
2017-08-23T06:56:52.522Z,18.10
2017-08-23T06:59:26.705Z,18.10
2017-08-23T07:02:00.349Z,18.10
2017-08-23T07:04:33.909Z,18.10
2017-08-23T07:07:08.362Z,18.20
2017-08-23T07:09:41.962Z,18.20
2017-08-23T07:12:15.465Z,18.20
2017-08-23T07:14:49.776Z,18.20
2017-08-23T07:17:23.412Z,18.20
2017-08-23T07:19:56.980Z,18.20
2017-08-23T07:22:30.541Z,18.30
2017-08-23T07:25:05.006Z,18.30
2017-08-23T07:27:38.706Z,18.30
2017-08-23T07:30:12.310Z,18.30
2017-08-23T07:32:45.798Z,18.40
2017-08-23T07:35:19.401Z,18.40
2017-08-23T07:37:53.010Z,18.40
2017-08-23T07:40:26.685Z,18.50
2017-08-23T07:43:00.415Z,18.50
2017-08-23T07:45:34.024Z,18.60
2017-08-23T07:48:07.753Z,18.60
2017-08-23T07:50:41.313Z,18.60
2017-08-23T07:53:14.908Z,18.60
2017-08-23T07:55:48.513Z,18.60
2017-08-23T07:58:22.142Z,18.60
2017-08-23T08:00:56.425Z,18.70
2017-08-23T08:03:30.135Z,18.70
2017-08-23T08:06:03.838Z,18.80
2017-08-23T08:08:38.075Z,18.80
2017-08-23T08:11:11.853Z,18.80
2017-08-23T08:13:45.389Z,18.90
2017-08-23T08:16:19.156Z,18.90
2017-08-23T08:18:52.676Z,19.00
2017-08-23T08:21:26.458Z,19.00
2017-08-23T08:24:00.161Z,19.00
2017-08-23T08:26:33.717Z,19.10
2017-08-23T08:29:07.365Z,19.10
2017-08-23T08:31:41.282Z,19.10
2017-08-23T08:34:14.989Z,19.10
2017-08-23T08:36:48.465Z,19.20
2017-08-23T08:39:22.181Z,19.20
2017-08-23T08:41:55.777Z,19.20
2017-08-23T08:44:29.487Z,19.20
2017-08-23T08:47:03.077Z,19.20
2017-08-23T08:49:36.686Z,19.20
2017-08-23T08:52:10.293Z,19.20
2017-08-23T08:54:43.889Z,19.30
2017-08-23T08:57:17.381Z,19.30
2017-08-23T08:59:50.994Z,19.30
2017-08-23T09:02:24.589Z,19.30
2017-08-23T09:04:58.181Z,19.40
2017-08-23T09:07:31.689Z,19.40
2017-08-23T09:10:06.317Z,19.40
2017-08-23T09:12:39.924Z,19.40
2017-08-23T09:15:13.613Z,19.40
2017-08-23T09:17:47.221Z,19.40
2017-08-23T09:20:20.710Z,19.50
2017-08-23T09:22:54.414Z,19.50
2017-08-23T09:25:27.978Z,19.50
2017-08-23T09:28:01.830Z,19.50
2017-08-23T09:30:35.353Z,19.60
2017-08-23T09:33:09.126Z,19.60
2017-08-23T09:35:42.741Z,19.60
2017-08-23T09:38:17.006Z,19.70
2017-08-23T09:40:50.650Z,19.60
2017-08-23T09:43:24.200Z,19.70
2017-08-23T09:45:57.956Z,19.70
2017-08-23T09:48:31.558Z,19.70
2017-08-23T09:51:05.965Z,19.70
2017-08-23T09:53:39.511Z,19.80
2017-08-23T09:56:13.235Z,19.80
2017-08-23T09:58:47.349Z,19.80
2017-08-23T10:01:20.933Z,19.80
2017-08-23T10:03:55.072Z,19.90
2017-08-23T10:06:28.654Z,19.90
2017-08-23T10:09:02.261Z,19.90
2017-08-23T10:11:35.860Z,19.90
2017-08-23T10:14:10.217Z,20.00
2017-08-23T10:16:43.706Z,20.00
2017-08-23T10:19:17.278Z,20.00
2017-08-23T10:21:50.814Z,20.10
2017-08-23T10:24:24.518Z,20.10
2017-08-23T10:26:58.227Z,20.10
2017-08-23T10:29:31.743Z,20.10
2017-08-23T10:32:06.142Z,20.20
2017-08-23T10:34:40.374Z,20.20
2017-08-23T10:37:14.364Z,20.20
2017-08-23T10:39:48.373Z,20.30
2017-08-23T10:42:22.142Z,20.30
2017-08-23T10:44:56.602Z,20.40
2017-08-23T10:47:30.312Z,20.40
2017-08-23T10:50:04.118Z,20.40
2017-08-23T10:52:37.573Z,20.50
2017-08-23T10:55:11.322Z,20.50
2017-08-23T10:57:44.965Z,20.50
2017-08-23T11:00:19.123Z,20.60
2017-08-23T11:02:53.645Z,20.70
2017-08-23T11:05:27.444Z,20.60
2017-08-23T11:08:01.055Z,20.70
2017-08-23T11:10:34.710Z,20.80
2017-08-23T11:13:08.476Z,20.80
2017-08-23T11:15:42.180Z,20.80
2017-08-23T11:18:15.870Z,20.90
2017-08-23T11:20:49.441Z,20.90
2017-08-23T11:23:22.934Z,20.90
2017-08-23T11:25:56.718Z,21.00
2017-08-23T11:28:30.333Z,21.00
2017-08-23T11:31:03.779Z,21.10
2017-08-23T11:33:37.553Z,21.10
2017-08-23T11:36:11.182Z,21.10
2017-08-23T11:38:44.842Z,21.10
2017-08-23T11:41:18.677Z,21.20
2017-08-23T11:43:52.385Z,21.20
2017-08-23T11:46:26.826Z,21.20
2017-08-23T11:49:00.372Z,21.30
2017-08-23T11:51:34.089Z,21.30
2017-08-23T11:54:07.699Z,21.30
2017-08-23T11:56:41.717Z,21.30
2017-08-23T11:59:15.318Z,21.40
2017-08-23T12:01:49.653Z,21.40
2017-08-23T12:04:23.097Z,21.40
2017-08-23T12:06:56.633Z,21.40
2017-08-23T12:09:30.333Z,21.40
2017-08-23T12:12:04.037Z,21.40
2017-08-23T12:14:37.641Z,21.40
2017-08-23T12:17:11.137Z,21.40
2017-08-23T12:19:44.841Z,21.40
2017-08-23T12:22:18.421Z,21.40
2017-08-23T12:24:51.973Z,21.40
2017-08-23T12:27:25.549Z,21.40
2017-08-23T12:29:59.245Z,21.40
2017-08-23T12:32:32.833Z,21.40
2017-08-23T12:35:06.454Z,21.40
2017-08-23T12:37:40.098Z,21.40
2017-08-23T12:40:13.854Z,21.40
2017-08-23T12:42:48.373Z,21.40
2017-08-23T12:45:22.078Z,21.40
2017-08-23T12:47:55.715Z,21.40
2017-08-23T12:50:29.586Z,21.30
2017-08-23T12:53:03.090Z,21.40
2017-08-23T12:55:36.790Z,21.40
2017-08-23T12:58:10.386Z,21.40
2017-08-23T13:00:44.099Z,21.40
2017-08-23T13:03:18.505Z,21.30
2017-08-23T13:05:52.110Z,21.30
2017-08-23T13:08:25.813Z,21.30
2017-08-23T13:10:59.730Z,21.30
2017-08-23T13:13:33.425Z,21.30
2017-08-23T13:16:07.022Z,21.30
2017-08-23T13:18:40.587Z,21.20
2017-08-23T13:21:14.122Z,21.30
2017-08-23T13:23:53.492Z,21.20
2017-08-23T13:26:27.057Z,21.20
2017-08-23T13:29:01.373Z,21.20
2017-08-23T13:31:34.978Z,21.20
2017-08-23T13:34:08.787Z,21.20
2017-08-23T13:36:42.586Z,21.20
2017-08-23T13:39:16.158Z,21.20
2017-08-23T13:41:49.686Z,21.20
2017-08-23T13:44:23.485Z,21.10
2017-08-23T13:46:57.089Z,21.20
2017-08-23T13:49:30.792Z,21.20
2017-08-23T13:52:04.357Z,21.20
2017-08-23T13:54:37.997Z,21.10
2017-08-23T13:57:11.641Z,21.10
2017-08-23T13:59:45.198Z,21.10
2017-08-23T14:02:18.989Z,21.10
2017-08-23T14:04:52.713Z,21.10
2017-08-23T14:07:26.413Z,21.10
2017-08-23T14:09:59.994Z,21.10
2017-08-23T14:12:33.533Z,21.10
2017-08-23T14:15:07.209Z,21.10
2017-08-23T14:17:40.810Z,21.20
2017-08-23T14:20:14.309Z,21.20
2017-08-23T14:22:47.914Z,21.20
2017-08-23T14:25:21.511Z,21.10
2017-08-23T14:27:55.208Z,21.20
2017-08-23T14:30:28.814Z,21.20
2017-08-23T14:33:03.168Z,21.20
2017-08-23T14:35:36.938Z,21.20
2017-08-23T14:38:10.554Z,21.10
2017-08-23T14:40:44.090Z,21.20
2017-08-23T14:43:17.638Z,21.20
2017-08-23T14:45:51.342Z,21.20
2017-08-23T14:48:24.968Z,21.20
2017-08-23T14:50:58.454Z,21.20
2017-08-23T14:53:32.137Z,21.20
2017-08-23T14:56:05.750Z,21.20
2017-08-23T14:58:39.341Z,21.20
2017-08-23T15:01:12.962Z,21.20
2017-08-23T15:03:46.621Z,21.20
2017-08-23T15:06:20.341Z,21.20
2017-08-23T15:08:53.864Z,21.20
2017-08-23T15:11:27.478Z,21.20
2017-08-23T15:14:01.150Z,21.20
2017-08-23T15:16:34.858Z,21.20
2017-08-23T15:19:08.457Z,21.20
2017-08-23T15:21:42.058Z,21.20
2017-08-23T15:24:15.655Z,21.20
2017-08-23T15:26:49.133Z,21.20
2017-08-23T15:29:22.726Z,21.20
2017-08-23T15:31:56.452Z,21.20
2017-08-23T15:34:30.045Z,21.20
2017-08-23T15:37:03.614Z,21.20
2017-08-23T15:39:38.078Z,21.20
2017-08-23T15:42:11.578Z,21.20
2017-08-23T15:44:45.265Z,21.20
2017-08-23T15:47:19.393Z,21.20
2017-08-23T15:49:53.823Z,21.20
2017-08-23T15:52:27.566Z,21.10
2017-08-23T15:55:01.217Z,21.20
2017-08-23T15:57:34.922Z,21.20
2017-08-23T16:00:08.389Z,21.20
2017-08-23T16:02:41.913Z,21.20
2017-08-23T16:05:16.777Z,21.20
2017-08-23T16:07:53.037Z,21.20
2017-08-23T16:10:27.222Z,21.20
2017-08-23T16:13:00.665Z,21.20
2017-08-23T16:15:34.637Z,21.20
2017-08-23T16:18:08.138Z,21.10
2017-08-23T16:20:41.836Z,21.20
2017-08-23T16:23:15.446Z,21.10
2017-08-23T16:25:49.849Z,21.10
2017-08-23T16:28:23.558Z,21.10
2017-08-23T16:30:57.460Z,21.10
2017-08-23T16:33:31.174Z,21.10
2017-08-23T16:36:05.594Z,21.10
2017-08-23T16:38:39.411Z,21.10
2017-08-23T16:41:12.898Z,21.10
2017-08-23T16:43:46.594Z,21.10
2017-08-23T16:46:20.110Z,21.10
2017-08-23T16:48:54.104Z,21.10
2017-08-23T16:51:28.624Z,21.10
2017-08-23T16:54:02.406Z,21.10
2017-08-23T16:56:36.038Z,21.10
2017-08-23T16:59:10.014Z,21.10
2017-08-23T17:01:43.750Z,21.10
2017-08-23T17:04:17.362Z,21.10
2017-08-23T17:06:50.941Z,21.10
2017-08-23T17:09:24.649Z,21.10
2017-08-23T17:11:58.261Z,21.10
2017-08-23T17:14:32.862Z,21.10
2017-08-23T17:17:06.686Z,21.10
2017-08-23T17:19:40.282Z,21.10
2017-08-23T17:22:14.805Z,21.10
2017-08-23T17:24:49.109Z,21.10
2017-08-23T17:27:22.622Z,21.00
2017-08-23T17:29:56.213Z,21.10
2017-08-23T17:32:29.813Z,21.00
2017-08-23T17:35:03.517Z,21.10
2017-08-23T17:37:37.225Z,21.10
2017-08-23T17:40:10.837Z,21.10
2017-08-23T17:42:44.438Z,21.00
2017-08-23T17:45:18.705Z,21.00
2017-08-23T17:47:52.360Z,21.00
2017-08-23T17:50:26.045Z,21.00
2017-08-23T17:52:59.748Z,21.00
2017-08-23T17:55:33.205Z,21.00
2017-08-23T17:58:06.922Z,21.00
2017-08-23T18:00:40.662Z,21.00
2017-08-23T18:03:14.354Z,21.00
2017-08-23T18:05:47.989Z,21.00
2017-08-23T18:08:21.734Z,21.00
2017-08-23T18:10:55.462Z,21.00
2017-08-23T18:13:29.601Z,21.00
2017-08-23T18:16:03.186Z,21.00
2017-08-23T18:18:36.887Z,21.00
2017-08-23T18:21:10.682Z,21.00
2017-08-23T18:23:44.491Z,21.00
2017-08-23T18:26:17.984Z,21.00
2017-08-23T18:28:51.502Z,20.90
2017-08-23T18:31:25.191Z,20.90
2017-08-23T18:33:59.675Z,20.90
2017-08-23T18:36:33.313Z,20.90
2017-08-23T18:39:06.990Z,20.90
2017-08-23T18:41:40.576Z,20.90
2017-08-23T18:44:15.042Z,20.90
2017-08-23T18:46:48.558Z,20.90
2017-08-23T18:49:22.025Z,20.90
2017-08-23T18:51:55.853Z,20.90
2017-08-23T18:54:30.157Z,20.90
2017-08-23T18:57:04.072Z,20.80
2017-08-23T18:59:37.666Z,20.80
2017-08-23T19:02:11.176Z,20.80
2017-08-23T19:04:44.682Z,20.80
2017-08-23T19:07:18.261Z,20.80
2017-08-23T19:09:51.859Z,20.80
2017-08-23T19:12:25.372Z,20.80
2017-08-23T19:14:58.993Z,20.80
2017-08-23T19:17:32.769Z,20.80
2017-08-23T19:20:06.460Z,20.80
2017-08-23T19:22:40.078Z,20.80
2017-08-23T19:25:13.761Z,20.80
2017-08-23T19:27:47.382Z,20.70
2017-08-23T19:30:20.949Z,20.70
2017-08-23T19:32:54.781Z,20.70
2017-08-23T19:35:28.502Z,20.70
2017-08-23T19:38:02.021Z,20.70
2017-08-23T19:40:35.687Z,20.70
2017-08-23T19:43:09.394Z,20.70
2017-08-23T19:45:43.115Z,20.70
2017-08-23T19:48:16.793Z,20.70
2017-08-23T19:50:50.362Z,20.70
2017-08-23T19:53:23.881Z,20.60
2017-08-23T19:55:58.189Z,20.60
2017-08-23T19:58:31.629Z,20.70
2017-08-23T20:01:05.149Z,20.60
2017-08-23T20:03:38.749Z,20.60
2017-08-23T20:06:12.399Z,20.60
2017-08-23T20:08:46.693Z,20.60
2017-08-23T20:11:20.205Z,20.60
2017-08-23T20:13:54.617Z,20.50
2017-08-23T20:16:28.155Z,20.50
2017-08-23T20:19:01.657Z,20.50
2017-08-23T20:21:35.330Z,20.50
2017-08-23T20:24:08.837Z,20.50
2017-08-23T20:26:42.367Z,20.50
2017-08-23T20:29:15.976Z,20.50
2017-08-23T20:31:50.354Z,20.40
2017-08-23T20:34:23.942Z,20.40
2017-08-23T20:36:57.474Z,20.40
2017-08-23T20:39:30.910Z,20.40
2017-08-23T20:42:04.471Z,20.40
2017-08-23T20:44:38.013Z,20.40
2017-08-23T20:47:12.458Z,20.30
2017-08-23T20:49:45.928Z,20.30
2017-08-23T20:52:19.446Z,20.30
2017-08-23T20:54:53.650Z,20.40
2017-08-23T20:57:27.154Z,20.30
2017-08-23T21:00:00.662Z,20.30
2017-08-23T21:02:34.311Z,20.30
2017-08-23T21:05:07.754Z,20.30
2017-08-23T21:07:41.389Z,20.30
2017-08-23T21:10:15.665Z,20.30
2017-08-23T21:12:49.194Z,20.20
2017-08-23T21:15:22.797Z,20.30
2017-08-23T21:17:56.325Z,20.30
2017-08-23T21:20:30.901Z,20.20
2017-08-23T21:23:04.370Z,20.20
2017-08-23T21:25:37.853Z,20.20
2017-08-23T21:28:11.326Z,20.20
2017-08-23T21:30:45.632Z,20.20
2017-08-23T21:33:19.293Z,20.20
2017-08-23T21:35:52.818Z,20.20
2017-08-23T21:38:26.338Z,20.20
2017-08-23T21:40:59.999Z,20.20
2017-08-23T21:43:33.515Z,20.20
2017-08-23T21:46:07.734Z,20.10
2017-08-23T21:48:41.587Z,20.10
2017-08-23T21:51:15.090Z,20.10
2017-08-23T21:53:48.738Z,20.10
2017-08-23T21:56:22.378Z,20.10
2017-08-23T21:58:56.015Z,20.10
2017-08-23T22:01:29.460Z,20.10
2017-08-23T22:04:03.751Z,20.00
2017-08-23T22:06:38.257Z,20.00
2017-08-23T22:09:11.782Z,20.00
2017-08-23T22:11:46.330Z,20.10
2017-08-23T22:14:20.117Z,20.00
2017-08-23T22:16:53.717Z,20.10
2017-08-23T22:19:27.449Z,20.10
2017-08-23T22:22:01.444Z,20.00
2017-08-23T22:24:35.029Z,20.10
2017-08-23T22:27:08.733Z,20.10
2017-08-23T22:29:42.437Z,20.10
2017-08-23T22:32:16.142Z,20.00
2017-08-23T22:34:49.861Z,20.00
2017-08-23T22:37:23.549Z,20.00
2017-08-23T22:39:57.354Z,20.00
2017-08-23T22:42:31.469Z,20.00
2017-08-23T22:45:05.818Z,20.00
2017-08-23T22:47:39.485Z,20.00
2017-08-23T22:50:13.214Z,20.00
2017-08-23T22:52:46.797Z,20.00
2017-08-23T22:55:20.501Z,20.00
2017-08-23T22:57:54.566Z,20.00
2017-08-23T23:00:28.174Z,19.90
2017-08-23T23:03:01.701Z,19.90
2017-08-23T23:05:35.406Z,19.90
2017-08-23T23:08:09.211Z,19.90
2017-08-23T23:10:43.058Z,19.90
2017-08-23T23:13:16.753Z,19.90
2017-08-23T23:15:50.528Z,19.90
2017-08-23T23:18:24.126Z,19.90
2017-08-23T23:20:57.834Z,19.90
2017-08-23T23:23:31.466Z,19.90
2017-08-23T23:26:05.234Z,19.90
2017-08-23T23:28:38.798Z,19.90
2017-08-23T23:31:12.398Z,19.90
2017-08-23T23:33:46.138Z,19.90
2017-08-23T23:36:19.829Z,19.90
2017-08-23T23:38:53.446Z,19.90
2017-08-23T23:41:27.005Z,19.80
2017-08-23T23:44:00.594Z,19.80
2017-08-23T23:46:34.361Z,19.90
2017-08-23T23:49:08.050Z,19.80
2017-08-23T23:51:41.545Z,19.90
2017-08-23T23:54:15.009Z,19.80
2017-08-23T23:56:48.625Z,19.80
2017-08-23T23:59:22.218Z,19.80
